createdAt,value
2023-06-21T00:01:13.635Z,4.32
2023-06-21T00:04:37.420Z,4.15
2023-06-21T00:07:49.133Z,3.78
2023-06-21T00:10:17.447Z,3.83
2023-06-21T00:12:47.158Z,3.90
2023-06-21T00:15:15.348Z,4.03
2023-06-21T00:17:43.664Z,4.32
2023-06-21T00:20:13.321Z,3.90
2023-06-21T00:22:42.525Z,4.00
2023-06-21T00:25:10.993Z,4.13
2023-06-21T00:27:39.250Z,3.80
2023-06-21T00:30:10.123Z,4.05
2023-06-21T00:32:39.972Z,3.97
2023-06-21T00:35:09.831Z,4.20
2023-06-21T00:37:39.090Z,3.95
2023-06-21T00:40:13.447Z,3.53
2023-06-21T00:42:41.873Z,4.57
2023-06-21T00:45:17.024Z,4.15
2023-06-21T00:47:47.127Z,4.50
2023-06-21T00:50:16.170Z,3.65
2023-06-21T00:52:44.842Z,4.38
2023-06-21T00:55:14.791Z,3.92
2023-06-21T00:57:45.365Z,3.85
2023-06-21T01:00:19.171Z,4.65
2023-06-21T01:02:47.833Z,4.32
2023-06-21T01:05:35.692Z,4.28
2023-06-21T01:08:12.611Z,3.95
2023-06-21T01:10:52.524Z,4.00
2023-06-21T01:13:33.490Z,4.13
2023-06-21T01:16:08.628Z,4.18
2023-06-21T01:18:37.877Z,4.00
2023-06-21T01:21:07.645Z,4.22
2023-06-21T01:23:53.680Z,4.20
2023-06-21T01:26:42.498Z,4.05
2023-06-21T01:29:14.173Z,3.95
2023-06-21T01:31:44.280Z,4.03
2023-06-21T01:34:14.696Z,3.63
2023-06-21T01:36:43.312Z,3.90
2023-06-21T01:39:12.253Z,4.43
2023-06-21T01:41:40.819Z,4.32
2023-06-21T01:44:13.871Z,4.60
2023-06-21T01:46:46.851Z,4.60
2023-06-21T01:49:17.111Z,4.60
2023-06-21T01:51:46.409Z,3.78
2023-06-21T01:54:17.178Z,4.13
2023-06-21T01:56:49.184Z,4.32
2023-06-21T01:59:19.327Z,4.18
2023-06-21T02:01:51.389Z,4.00
2023-06-21T02:04:21.070Z,4.10
2023-06-21T02:06:50.304Z,4.32
2023-06-21T02:09:20.492Z,4.18
2023-06-21T02:11:49.169Z,4.30
2023-06-21T02:14:18.964Z,4.15
2023-06-21T02:16:48.202Z,5.13
2023-06-21T02:19:16.652Z,4.40
2023-06-21T02:21:46.484Z,3.72
2023-06-21T02:24:16.983Z,4.78
2023-06-21T02:26:45.349Z,3.85
2023-06-21T02:29:14.282Z,4.10
2023-06-21T02:31:44.721Z,4.30
2023-06-21T02:34:16.416Z,3.97
2023-06-21T02:36:54.412Z,4.00
2023-06-21T02:39:23.515Z,4.40
2023-06-21T02:41:52.654Z,4.18
2023-06-21T02:44:21.160Z,4.35
2023-06-21T02:46:50.831Z,4.45
2023-06-21T02:49:19.204Z,4.65
2023-06-21T02:51:51.383Z,4.28
2023-06-21T02:54:19.775Z,4.78
2023-06-21T02:56:48.162Z,3.88
2023-06-21T02:59:16.461Z,4.80
2023-06-21T03:01:49.157Z,4.70
2023-06-21T03:04:20.047Z,4.10
2023-06-21T03:06:48.689Z,4.47
2023-06-21T03:09:17.229Z,4.55
2023-06-21T03:11:46.126Z,4.43
2023-06-21T03:14:14.771Z,4.53
2023-06-21T03:16:45.210Z,4.57
2023-06-21T03:19:14.239Z,4.50
2023-06-21T03:21:45.063Z,4.75
2023-06-21T03:24:13.433Z,4.90
2023-06-21T03:26:42.804Z,4.75
2023-06-21T03:29:11.292Z,4.55
2023-06-21T03:31:40.694Z,4.53
2023-06-21T03:34:09.491Z,4.93
2023-06-21T03:36:38.055Z,4.60
2023-06-21T03:39:08.910Z,4.70
2023-06-21T03:41:38.730Z,4.90
2023-06-21T03:44:07.409Z,4.95
2023-06-21T03:46:35.695Z,4.85
2023-06-21T03:49:05.617Z,4.55
2023-06-21T03:51:34.185Z,4.70
2023-06-21T03:54:03.469Z,4.60
2023-06-21T03:56:33.853Z,4.35
2023-06-21T03:59:02.461Z,4.65
2023-06-21T04:01:30.987Z,4.78
2023-06-21T04:03:59.561Z,4.60
2023-06-21T04:06:28.028Z,4.50
2023-06-21T04:08:56.322Z,4.60
2023-06-21T04:11:26.801Z,4.63
2023-06-21T04:13:56.557Z,4.75
2023-06-21T04:16:27.460Z,4.72
2023-06-21T04:18:56.384Z,4.90
2023-06-21T04:21:26.166Z,5.00
2023-06-21T04:23:54.468Z,4.72
2023-06-21T04:26:24.239Z,4.43
2023-06-21T04:28:53.918Z,4.78
2023-06-21T04:31:24.142Z,4.82
2023-06-21T04:33:54.875Z,5.28
2023-06-21T04:36:23.373Z,4.50
2023-06-21T04:38:51.632Z,4.50
2023-06-21T04:41:21.190Z,5.22
2023-06-21T04:43:49.550Z,5.13
2023-06-21T04:46:19.325Z,5.03
2023-06-21T04:48:49.525Z,5.03
2023-06-21T04:51:17.821Z,5.15
2023-06-21T04:53:46.493Z,4.22
2023-06-21T04:56:14.852Z,5.15
2023-06-21T04:58:43.262Z,4.68
2023-06-21T05:01:11.684Z,5.40
2023-06-21T05:03:40.023Z,5.30
2023-06-21T05:06:09.734Z,5.38
2023-06-21T05:08:38.043Z,5.20
2023-06-21T05:11:07.992Z,5.70
2023-06-21T05:13:36.374Z,5.32
2023-06-21T05:16:04.881Z,5.15
2023-06-21T05:18:33.168Z,5.35
2023-06-21T05:21:01.445Z,5.38
2023-06-21T05:23:31.120Z,5.53
2023-06-21T05:25:59.391Z,5.00
2023-06-21T05:28:27.719Z,5.32
2023-06-21T05:30:56.032Z,4.60
2023-06-21T05:33:24.355Z,5.50
2023-06-21T05:35:52.711Z,5.35
2023-06-21T05:38:21.070Z,5.88
2023-06-21T05:40:50.732Z,5.13
2023-06-21T05:43:18.939Z,5.20
2023-06-21T05:45:47.370Z,5.40
2023-06-21T05:48:16.813Z,5.25
2023-06-21T05:50:45.121Z,5.43
2023-06-21T05:53:13.450Z,5.53
2023-06-21T05:55:41.745Z,5.82
2023-06-21T05:58:11.363Z,5.60
2023-06-21T06:00:39.823Z,5.43
2023-06-21T06:03:09.829Z,5.47
2023-06-21T06:05:38.493Z,5.63
2023-06-21T06:08:06.864Z,5.15
2023-06-21T06:10:35.172Z,5.63
2023-06-21T06:13:03.529Z,5.25
2023-06-21T06:15:33.545Z,5.32
2023-06-21T06:18:01.885Z,5.47
2023-06-21T06:20:31.135Z,5.22
2023-06-21T06:23:00.100Z,5.63
2023-06-21T06:25:28.343Z,5.20
2023-06-21T06:27:56.681Z,5.45
2023-06-21T06:30:25.010Z,6.07
2023-06-21T06:32:54.736Z,5.28
2023-06-21T06:35:23.061Z,5.55
2023-06-21T06:37:51.436Z,5.50
2023-06-21T06:40:19.797Z,5.22
2023-06-21T06:42:48.040Z,6.22
2023-06-21T06:45:16.510Z,5.60
2023-06-21T06:47:44.807Z,5.32
2023-06-21T06:50:14.729Z,5.90
2023-06-21T06:52:42.971Z,5.93
2023-06-21T06:55:11.411Z,5.22
2023-06-21T06:57:46.605Z,5.63
2023-06-21T07:00:29.044Z,5.10
2023-06-21T07:02:58.485Z,5.60
2023-06-21T07:05:28.731Z,5.40
2023-06-21T07:07:57.835Z,5.65
2023-06-21T07:10:26.508Z,5.75
2023-06-21T07:12:55.266Z,5.80
2023-06-21T07:15:26.497Z,5.30
2023-06-21T07:17:55.130Z,5.88
2023-06-21T07:20:24.020Z,5.53
2023-06-21T07:22:53.891Z,5.43
2023-06-21T07:25:22.413Z,5.75
2023-06-21T07:27:50.973Z,5.60
2023-06-21T07:30:19.836Z,5.60
2023-06-21T07:32:48.929Z,5.55
2023-06-21T07:35:17.921Z,6.00
2023-06-21T07:37:46.832Z,5.50
2023-06-21T07:40:16.723Z,5.43
2023-06-21T07:42:45.505Z,5.38
2023-06-21T07:45:13.995Z,6.03
2023-06-21T07:47:42.848Z,5.88
2023-06-21T07:50:21.794Z,6.35
2023-06-21T07:52:51.229Z,7.68
2023-06-21T07:55:21.022Z,6.78
2023-06-21T07:57:49.758Z,7.35
2023-06-21T08:00:18.850Z,7.25
2023-06-21T08:02:50.826Z,6.88
2023-06-21T08:05:20.213Z,6.00
2023-06-21T08:07:49.359Z,5.43
2023-06-21T08:10:17.640Z,5.88
2023-06-21T08:12:47.712Z,6.03
2023-06-21T08:15:16.127Z,5.80
2023-06-21T08:17:44.970Z,6.30
2023-06-21T08:20:14.180Z,6.30
2023-06-21T08:22:42.893Z,6.30
2023-06-21T08:25:11.679Z,6.20
2023-06-21T08:27:41.741Z,6.53
2023-06-21T08:30:13.150Z,6.10
2023-06-21T08:32:41.475Z,5.90
2023-06-21T08:35:10.716Z,6.38
2023-06-21T08:37:41.843Z,6.25
2023-06-21T08:40:11.090Z,5.88
2023-06-21T08:42:39.578Z,6.15
2023-06-21T08:45:08.540Z,6.28
2023-06-21T08:47:38.982Z,6.10
2023-06-21T08:50:08.452Z,6.35
2023-06-21T08:52:38.216Z,6.30
2023-06-21T08:55:10.360Z,6.15
2023-06-21T09:00:17.898Z,6.07
2023-06-21T09:02:57.926Z,5.70
2023-06-21T09:05:30.862Z,6.07
2023-06-21T09:08:00.664Z,5.60
2023-06-21T09:10:31.069Z,6.00
2023-06-21T09:13:02.036Z,5.90
2023-06-21T09:15:31.749Z,5.53
2023-06-21T09:18:02.765Z,5.22
2023-06-21T09:20:32.163Z,5.63
2023-06-21T09:23:01.434Z,6.10
2023-06-21T09:25:29.990Z,5.63
2023-06-21T09:27:58.582Z,5.93
2023-06-21T09:32:59.032Z,5.78
2023-06-21T09:35:29.050Z,5.88
2023-06-21T09:37:57.316Z,5.32
2023-06-21T09:40:25.886Z,5.30
2023-06-21T09:42:55.878Z,5.45
2023-06-21T09:45:24.332Z,5.38
2023-06-21T09:47:52.895Z,5.55
2023-06-21T09:50:21.346Z,5.40
2023-06-21T09:52:50.977Z,5.53
2023-06-21T09:55:19.717Z,4.78
2023-06-21T09:57:48.023Z,5.10
2023-06-21T10:00:17.046Z,5.05
2023-06-21T10:02:45.565Z,5.22
2023-06-21T10:05:18.906Z,4.53
2023-06-21T10:07:47.873Z,4.53
2023-06-21T10:10:20.328Z,4.63
2023-06-21T10:12:55.347Z,4.28
2023-06-21T10:15:24.928Z,4.32
2023-06-21T10:20:26.565Z,3.88
2023-06-21T10:22:57.844Z,4.13
2023-06-21T10:25:29.350Z,4.05
2023-06-21T10:28:01.668Z,3.92
2023-06-21T10:30:31.291Z,3.45
2023-06-21T10:33:02.368Z,3.90
2023-06-21T10:35:36.280Z,3.42
2023-06-21T10:38:12.776Z,4.20
2023-06-21T10:40:43.645Z,3.83
2023-06-21T10:43:12.347Z,4.13
2023-06-21T10:45:42.771Z,3.67
2023-06-21T10:48:14.819Z,4.18
2023-06-21T10:50:44.713Z,3.95
2023-06-21T10:53:14.375Z,3.35
2023-06-21T10:55:44.460Z,3.42
2023-06-21T10:58:14.441Z,3.78
2023-06-21T11:00:45.604Z,3.22
2023-06-21T11:03:17.912Z,3.47
2023-06-21T11:05:47.130Z,3.45
2023-06-21T11:08:17.569Z,3.05
2023-06-21T11:10:50.326Z,3.58
2023-06-21T11:13:20.089Z,4.00
2023-06-21T11:15:49.709Z,3.05
2023-06-21T11:18:20.698Z,3.13
2023-06-21T11:20:51.339Z,3.45
2023-06-21T11:23:23.207Z,3.47
2023-06-21T11:25:54.036Z,3.80
2023-06-21T11:28:28.067Z,3.80
2023-06-21T11:31:10.603Z,3.70
2023-06-21T11:33:57.528Z,3.70
2023-06-21T11:36:29.983Z,3.17
2023-06-21T11:39:17.232Z,3.63
2023-06-21T11:42:03.102Z,3.50
2023-06-21T11:44:33.615Z,3.58
2023-06-21T11:47:19.382Z,3.47
2023-06-21T11:49:53.606Z,3.25
2023-06-21T11:52:26.808Z,3.70
2023-06-21T11:54:55.198Z,3.40
2023-06-21T11:57:24.898Z,3.05
2023-06-21T11:59:53.118Z,3.08
2023-06-21T12:02:22.399Z,3.20
2023-06-21T12:04:52.230Z,3.95
2023-06-21T12:07:21.353Z,3.30
2023-06-21T12:09:54.789Z,3.20
2023-06-21T12:12:28.467Z,3.47
2023-06-21T12:14:59.883Z,3.78
2023-06-21T12:17:28.147Z,3.33
2023-06-21T12:20:06.109Z,3.20
2023-06-21T12:22:34.377Z,3.67
2023-06-21T12:25:02.899Z,3.58
2023-06-21T12:27:32.656Z,3.20
2023-06-21T12:30:03.080Z,2.95
2023-06-21T12:32:35.490Z,3.40
2023-06-21T12:35:04.781Z,3.13
2023-06-21T12:37:33.383Z,3.80
2023-06-21T12:40:05.797Z,3.28
2023-06-21T12:42:35.572Z,3.50
2023-06-21T12:45:05.638Z,3.17
2023-06-21T12:47:34.472Z,2.90
2023-06-21T12:50:02.784Z,3.30
2023-06-21T12:52:31.956Z,3.15
2023-06-21T12:55:02.154Z,2.75
2023-06-21T12:57:31.562Z,2.80
2023-06-21T13:00:01.231Z,2.92
2023-06-21T13:02:30.102Z,3.33
2023-06-21T13:04:59.238Z,3.10
2023-06-21T13:07:27.528Z,3.40
2023-06-21T13:09:59.308Z,3.88
2023-06-21T13:12:29.707Z,3.30
2023-06-21T13:14:58.298Z,2.92
2023-06-21T13:17:28.352Z,2.92
2023-06-21T13:19:57.233Z,3.45
2023-06-21T13:22:26.139Z,3.22
2023-06-21T13:24:54.566Z,3.00
2023-06-21T13:27:22.802Z,3.47
2023-06-21T13:29:51.085Z,3.63
2023-06-21T13:32:21.066Z,3.22
2023-06-21T13:34:51.206Z,3.50
2023-06-21T13:37:20.084Z,3.30
2023-06-21T13:39:50.762Z,3.40
2023-06-21T13:42:19.831Z,3.42
2023-06-21T13:44:48.845Z,3.08
2023-06-21T13:47:17.956Z,3.33
2023-06-21T13:49:50.109Z,3.17
2023-06-21T13:52:21.159Z,3.08
2023-06-21T13:54:52.229Z,2.80
2023-06-21T13:57:21.867Z,3.30
2023-06-21T13:59:51.040Z,3.00
2023-06-21T14:02:20.008Z,3.10
2023-06-21T14:04:49.446Z,2.95
2023-06-21T14:07:22.253Z,3.30
2023-06-21T14:09:51.907Z,3.33
2023-06-21T14:12:20.861Z,3.30
2023-06-21T14:14:49.923Z,3.30
2023-06-21T14:17:19.082Z,2.72
2023-06-21T14:19:48.193Z,2.90
2023-06-21T14:22:20.828Z,2.95
2023-06-21T14:24:52.736Z,3.30
2023-06-21T14:27:21.966Z,3.00
2023-06-21T14:29:53.674Z,3.13
2023-06-21T14:32:23.030Z,3.20
2023-06-21T14:34:54.837Z,3.17
2023-06-21T14:37:28.687Z,3.42
2023-06-21T14:40:05.056Z,2.95
2023-06-21T14:42:35.765Z,3.38
2023-06-21T14:45:05.223Z,3.63
2023-06-21T14:47:36.602Z,3.10
2023-06-21T14:50:06.671Z,3.47
2023-06-21T14:52:46.092Z,3.00
2023-06-21T14:55:15.196Z,3.25
2023-06-21T14:57:44.183Z,3.58
2023-06-21T15:00:14.394Z,3.33
2023-06-21T15:02:43.870Z,3.55
2023-06-21T15:05:15.683Z,3.03
2023-06-21T15:07:49.202Z,2.95
2023-06-21T15:10:19.721Z,3.25
2023-06-21T15:13:00.739Z,3.53
2023-06-21T15:15:31.217Z,3.50
2023-06-21T15:18:02.726Z,3.40
2023-06-21T15:20:32.797Z,3.03
2023-06-21T15:23:05.220Z,3.40
2023-06-21T15:25:34.876Z,3.40
2023-06-21T15:28:04.466Z,3.10
2023-06-21T15:30:33.683Z,3.47
2023-06-21T15:33:02.463Z,3.10
2023-06-21T15:35:31.546Z,3.28
2023-06-21T15:38:00.947Z,3.55
2023-06-21T15:40:33.750Z,3.35
2023-06-21T15:43:01.987Z,3.28
2023-06-21T15:45:30.665Z,2.95
2023-06-21T15:47:59.262Z,2.97
2023-06-21T15:50:27.691Z,3.03
2023-06-21T15:52:57.263Z,3.40
2023-06-21T15:55:27.412Z,3.13
2023-06-21T15:57:57.249Z,3.35
2023-06-21T16:00:25.828Z,3.38
2023-06-21T16:02:54.299Z,3.03
2023-06-21T16:05:22.582Z,3.55
2023-06-21T16:07:50.796Z,3.17
2023-06-21T16:10:19.183Z,3.40
2023-06-21T16:12:57.516Z,3.33
2023-06-21T16:15:28.094Z,2.85
2023-06-21T16:17:56.966Z,3.28
2023-06-21T16:20:27.549Z,3.10
2023-06-21T16:22:56.040Z,3.47
2023-06-21T16:25:24.380Z,3.67
2023-06-21T16:27:52.893Z,3.13
2023-06-21T16:30:22.072Z,3.30
2023-06-21T16:32:51.801Z,3.10
2023-06-21T16:35:20.407Z,3.05
2023-06-21T16:37:48.763Z,2.90
2023-06-21T16:40:17.713Z,3.10
2023-06-21T16:42:46.022Z,3.50
2023-06-21T16:45:14.309Z,3.00
2023-06-21T16:47:43.577Z,3.20
2023-06-21T16:50:16.396Z,3.05
2023-06-21T16:52:45.037Z,3.42
2023-06-21T16:55:13.397Z,3.30
2023-06-21T16:57:42.012Z,3.58
2023-06-21T17:00:11.827Z,3.50
2023-06-21T17:02:40.291Z,3.35
2023-06-21T17:05:09.574Z,3.47
2023-06-21T17:07:39.398Z,3.25
2023-06-21T17:10:08.931Z,3.05
2023-06-21T17:12:37.618Z,3.30
2023-06-21T17:15:06.811Z,3.35
2023-06-21T17:17:35.219Z,3.28
2023-06-21T17:20:03.472Z,3.55
2023-06-21T17:22:31.766Z,3.40
2023-06-21T17:25:02.119Z,3.60
2023-06-21T17:27:30.492Z,3.75
2023-06-21T17:29:58.793Z,3.50
2023-06-21T17:32:27.365Z,3.38
2023-06-21T17:34:55.791Z,3.17
2023-06-21T17:37:24.109Z,3.60
2023-06-21T17:39:52.414Z,3.58
2023-06-21T17:42:22.729Z,3.72
2023-06-21T17:44:51.079Z,3.28
2023-06-21T17:47:19.459Z,3.50
2023-06-21T17:49:47.847Z,3.83
2023-06-21T17:52:16.171Z,4.00
2023-06-21T17:54:44.440Z,3.60
2023-06-21T17:57:12.682Z,3.58
2023-06-21T17:59:42.429Z,3.83
2023-06-21T18:02:10.867Z,4.47
2023-06-21T18:04:39.172Z,3.97
2023-06-21T18:07:07.869Z,3.75
2023-06-21T18:09:36.180Z,3.53
2023-06-21T18:12:06.887Z,3.65
2023-06-21T18:14:35.199Z,3.80
2023-06-21T18:17:05.440Z,3.60
2023-06-21T18:19:33.814Z,3.72
2023-06-21T18:22:12.239Z,4.28
2023-06-21T18:24:42.115Z,3.97
2023-06-21T18:27:10.477Z,4.00
2023-06-21T18:29:53.187Z,3.90
2023-06-21T18:32:28.483Z,3.58
2023-06-21T18:34:56.751Z,4.20
2023-06-21T18:37:25.142Z,3.97
2023-06-21T18:39:53.552Z,4.10
2023-06-21T18:42:21.816Z,4.13
2023-06-21T18:44:50.704Z,4.38
2023-06-21T18:47:19.068Z,4.28
2023-06-21T18:49:48.797Z,3.58
2023-06-21T18:52:17.170Z,4.05
2023-06-21T18:54:45.477Z,4.07
2023-06-21T18:57:13.865Z,3.97
2023-06-21T18:59:42.236Z,3.92
2023-06-21T19:02:10.756Z,3.97
2023-06-21T19:04:42.153Z,3.78
2023-06-21T19:07:13.692Z,4.10
2023-06-21T19:09:41.938Z,4.25
2023-06-21T19:12:10.630Z,4.22
2023-06-21T19:14:38.919Z,3.83
2023-06-21T19:17:09.977Z,3.90
2023-06-21T19:19:38.455Z,4.07
2023-06-21T19:22:07.246Z,4.13
2023-06-21T19:24:36.888Z,4.30
2023-06-21T19:27:05.835Z,3.90
2023-06-21T19:29:34.252Z,4.40
2023-06-21T19:32:02.656Z,3.97
2023-06-21T19:34:31.416Z,3.72
2023-06-21T19:36:59.816Z,4.50
2023-06-21T19:39:28.219Z,4.03
2023-06-21T19:41:58.091Z,4.18
2023-06-21T19:44:26.439Z,4.38
2023-06-21T19:46:54.822Z,4.50
2023-06-21T19:49:23.243Z,3.92
2023-06-21T19:51:51.527Z,3.83
2023-06-21T19:54:20.751Z,3.97
2023-06-21T19:56:49.174Z,4.00
2023-06-21T19:59:18.825Z,3.83
2023-06-21T20:01:47.467Z,4.63
2023-06-21T20:04:15.887Z,4.10
2023-06-21T20:06:44.192Z,3.92
2023-06-21T20:09:12.574Z,4.07
2023-06-21T20:11:40.830Z,4.35
2023-06-21T20:14:09.106Z,4.35
2023-06-21T20:16:38.821Z,3.72
2023-06-21T20:19:07.059Z,3.92
2023-06-21T20:21:35.893Z,4.25
2023-06-21T20:24:04.304Z,4.22
2023-06-21T20:26:32.582Z,4.28
2023-06-21T20:29:00.839Z,3.75
2023-06-21T20:31:29.250Z,4.18
2023-06-21T20:33:59.044Z,4.38
2023-06-21T20:36:29.660Z,4.25
2023-06-21T20:38:58.159Z,3.90
2023-06-21T20:41:26.503Z,4.00
2023-06-21T20:43:57.965Z,3.95
2023-06-21T20:46:29.335Z,4.30
2023-06-21T20:49:04.089Z,4.63
2023-06-21T20:51:32.390Z,3.90
2023-06-21T20:54:00.661Z,4.20
2023-06-21T20:56:29.094Z,4.43
2023-06-21T20:58:58.421Z,4.00
2023-06-21T21:01:26.843Z,4.50
2023-06-21T21:03:56.416Z,3.65
2023-06-21T21:06:27.736Z,4.40
2023-06-21T21:08:56.094Z,4.30
2023-06-21T21:11:26.232Z,4.25
2023-06-21T21:13:56.598Z,4.07
2023-06-21T21:16:25.124Z,4.63
2023-06-21T21:18:53.333Z,4.60
2023-06-21T21:21:22.771Z,3.92
2023-06-21T21:23:52.734Z,4.03
2023-06-21T21:26:21.009Z,4.00
2023-06-21T21:28:49.295Z,4.10
2023-06-21T21:31:17.649Z,4.50
2023-06-21T21:33:45.939Z,4.25
2023-06-21T21:36:14.236Z,4.50
2023-06-21T21:38:44.246Z,4.25
2023-06-21T21:41:14.123Z,4.28
2023-06-21T21:43:42.442Z,4.50
2023-06-21T21:46:10.952Z,3.95
2023-06-21T21:48:39.185Z,4.18
2023-06-21T21:51:07.466Z,4.13
2023-06-21T21:53:35.779Z,4.15
2023-06-21T21:56:04.142Z,4.15
2023-06-21T21:58:33.789Z,4.68
2023-06-21T22:01:02.216Z,4.60
2023-06-21T22:03:30.824Z,4.65
2023-06-21T22:05:59.322Z,4.20
2023-06-21T22:08:27.564Z,3.92
2023-06-21T22:10:55.909Z,4.13
2023-06-21T22:13:27.666Z,4.03
2023-06-21T22:15:58.747Z,4.30
2023-06-21T22:18:28.679Z,4.20
2023-06-21T22:20:59.763Z,4.18
2023-06-21T22:23:30.277Z,4.15
2023-06-21T22:25:59.270Z,4.43
2023-06-21T22:28:28.560Z,4.50
2023-06-21T22:30:58.885Z,4.70
2023-06-21T22:33:28.837Z,4.60
2023-06-21T22:35:57.127Z,4.57
2023-06-21T22:38:25.506Z,4.40
2023-06-21T22:40:54.363Z,4.35
2023-06-21T22:43:22.653Z,4.65
2023-06-21T22:45:50.974Z,4.50
2023-06-21T22:48:22.076Z,4.72
2023-06-21T22:50:50.422Z,4.65
2023-06-21T22:53:18.714Z,4.75
2023-06-21T22:55:47.068Z,3.92
2023-06-21T22:58:15.498Z,4.22
2023-06-21T23:00:43.778Z,4.28
2023-06-21T23:03:14.155Z,4.25
2023-06-21T23:05:47.552Z,4.28
2023-06-21T23:08:18.949Z,4.15
2023-06-21T23:10:48.025Z,4.43
2023-06-21T23:13:16.961Z,4.50
2023-06-21T23:15:47.763Z,4.53
2023-06-21T23:18:16.363Z,4.55
2023-06-21T23:20:46.159Z,4.60
2023-06-21T23:23:16.863Z,4.40
2023-06-21T23:25:48.610Z,4.20
2023-06-21T23:28:21.252Z,3.90
2023-06-21T23:30:50.073Z,4.38
2023-06-21T23:33:18.361Z,4.30
2023-06-21T23:35:48.042Z,4.03
2023-06-21T23:38:16.387Z,4.20
2023-06-21T23:40:44.686Z,4.38
2023-06-21T23:43:20.858Z,4.00
2023-06-21T23:45:49.352Z,4.80
2023-06-21T23:48:17.610Z,4.07
2023-06-21T23:50:47.250Z,4.32
2023-06-21T23:53:15.557Z,4.20
2023-06-21T23:55:46.475Z,4.22
2023-06-21T23:58:14.789Z,4.57
